Time;durP1;ratioP1;P1;durP2;ratioP2;P2;SDS_P1;SDS_P2;PMS_P1;PMS_P2;Temp;Humidity;BMP_temperature;BMP_pressure;BME280_temperature;BME280_humidity;BME280_pressure;Samples;Min_cycle;Max_cycle;Signal;HPM_P1;HPM_P2
2021/03/19 00:01:43;;;;;;;;;;;6.70;98.40;;;;;;5094092;28;19959;-72
2021/03/19 00:04:09;;;;;;;;;;;6.70;98.40;;;;;;5089384;28;19925;-71
2021/03/19 00:06:36;;;;;;;;;;;6.70;98.50;;;;;;5093273;28;20403;-69
2021/03/19 00:09:03;;;;;;;;;;;6.70;98.60;;;;;;5095226;28;19924;-71
2021/03/19 00:11:30;;;;;;;;;;;6.70;98.70;;;;;;5094355;28;20027;-71
2021/03/19 00:13:57;;;;;;;;;;;6.70;98.70;;;;;;5086124;28;19925;-71
2021/03/19 00:16:23;;;;;;;;;;;6.80;98.90;;;;;;5077622;28;20369;-71
2021/03/19 00:18:50;;;;;;;;;;;6.80;98.80;;;;;;5074813;28;20400;-71
2021/03/19 00:21:16;;;;;;;;;;;6.80;98.80;;;;;;5074452;28;19924;-71
2021/03/19 00:23:42;;;;;;;;;;;6.80;98.90;;;;;;5074656;28;19938;-71
2021/03/19 00:26:09;;;;;;;;;;;6.80;98.80;;;;;;5074861;28;19934;-71
2021/03/19 00:28:35;;;;;;;;;;;6.80;99.10;;;;;;5074563;28;19946;-71
2021/03/19 00:31:02;;;;;;;;;;;6.80;98.80;;;;;;5074591;28;19974;-71
2021/03/19 00:33:29;;;;;;;;;;;6.90;98.80;;;;;;5075099;28;20029;-69
2021/03/19 00:35:55;;;;;;;;;;;6.90;99.00;;;;;;5074230;28;19938;-71
2021/03/19 00:38:21;;;;;;;;;;;6.90;98.80;;;;;;5074841;28;19935;-71
2021/03/19 00:40:47;;;;;;;;;;;6.90;98.90;;;;;;5084621;28;20355;-71
2021/03/19 00:43:14;;;;;;;;;;;6.90;98.90;;;;;;5092701;28;19924;-70
2021/03/19 00:45:41;;;;;;;;;;;6.90;98.80;;;;;;5094216;28;20019;-71
2021/03/19 00:48:08;;;;;;;;;;;6.90;98.80;;;;;;5094897;28;19924;-70
2021/03/19 00:50:35;;;;;;;;;;;6.90;98.80;;;;;;5094303;28;19924;-71
2021/03/19 00:53:02;;;;;;;;;;;6.90;98.90;;;;;;5094711;28;19925;-70
2021/03/19 00:55:28;;;;;;;;;;;6.80;98.90;;;;;;5094713;28;19997;-71
2021/03/19 00:57:54;;;;;;;;;;;6.80;98.90;;;;;;5093795;28;19924;-71
2021/03/19 01:00:22;;;;;;;;;;;6.80;98.90;;;;;;5077750;28;19924;-71
2021/03/19 01:02:48;;;;;;;;;;;6.80;98.90;;;;;;5074068;28;19981;-71
2021/03/19 01:05:16;;;;;;;;;;;6.80;99.00;;;;;;5063537;28;19934;-71
2021/03/19 01:07:43;;;;;;;;;;;6.80;99.00;;;;;;5073772;28;20384;-71
2021/03/19 01:10:10;;;;;;;;;;;6.90;99.00;;;;;;5074169;28;19942;-70
2021/03/19 01:12:36;;;;;;;;;;;6.90;98.80;;;;;;5073397;28;20351;-71
2021/03/19 01:15:03;;;;;;;;;;;6.90;98.80;;;;;;5073804;28;19931;-71
2021/03/19 01:17:29;;;;;;;;;;;6.90;98.80;;;;;;5074042;28;19924;-71
2021/03/19 01:19:56;;;;;;;;;;;6.80;98.30;;;;;;5073361;28;19924;-71
2021/03/19 01:22:23;;;;;;;;;;;6.80;98.40;;;;;;5073937;28;19943;-71
2021/03/19 01:24:49;;;;;;;;;;;6.80;98.30;;;;;;5073569;28;19947;-71
2021/03/19 01:27:15;;;;;;;;;;;6.80;98.30;;;;;;5073857;28;19933;-71
2021/03/19 01:29:42;;;;;;;;;;;6.80;98.10;;;;;;5073140;28;19929;-71
2021/03/19 01:32:08;;;;;;;;;;;6.80;98.10;;;;;;5073562;28;19924;-71
2021/03/19 01:34:34;;;;;;;;;;;6.80;97.80;;;;;;5071826;28;19938;-71
2021/03/19 01:37:00;;;;;;;;;;;6.80;97.80;;;;;;5073425;28;19946;-71
2021/03/19 01:39:27;;;;;;;;;;;6.70;97.60;;;;;;5073160;28;19924;-69
2021/03/19 01:41:54;;;;;;;;;;;6.60;97.50;;;;;;5071787;28;19924;-70
2021/03/19 01:44:21;;;;;;;;;;;6.70;97.60;;;;;;5072521;28;20027;-70
2021/03/19 01:47:09;;;;;;;;;;;6.70;97.50;;;;;;5072757;28;19935;-70
2021/03/19 01:49:54;;;;;;;;;;;6.60;97.70;;;;;;5067151;28;20339;-71
2021/03/19 01:52:39;;;;;;;;;;;6.60;97.80;;;;;;5081823;28;20281;-71
2021/03/19 01:55:24;;;;;;;;;;;6.60;97.90;;;;;;5093449;28;20266;-70
2021/03/19 01:58:09;;;;;;;;;;;6.50;97.80;;;;;;5091109;28;20465;-69
2021/03/19 02:00:54;;;;;;;;;;;6.50;97.80;;;;;;5091418;28;19934;-70
2021/03/19 02:03:40;;;;;;;;;;;6.50;97.50;;;;;;5093328;28;20376;-70
2021/03/19 02:06:25;;;;;;;;;;;6.50;97.20;;;;;;5064684;28;19925;-70
2021/03/19 02:09:10;;;;;;;;;;;6.40;97.50;;;;;;5061793;28;19930;-70
2021/03/19 02:11:55;;;;;;;;;;;6.40;97.60;;;;;;5072688;28;19935;-71
2021/03/19 02:14:40;;;;;;;;;;;6.30;97.70;;;;;;5072755;28;19931;-71
2021/03/19 02:17:25;;;;;;;;;;;6.30;97.70;;;;;;5060695;28;19932;-71
2021/03/19 02:20:10;;;;;;;;;;;6.30;97.80;;;;;;5072500;28;19924;-71
2021/03/19 02:22:54;;;;;;;;;;;6.30;97.80;;;;;;5073268;28;19924;-71
2021/03/19 02:25:39;;;;;;;;;;;6.30;97.90;;;;;;5072728;28;19934;-70
2021/03/19 02:28:24;;;;;;;;;;;6.30;98.00;;;;;;5072727;28;19925;-71
2021/03/19 02:31:09;;;;;;;;;;;6.30;98.10;;;;;;5084263;28;20758;-71
2021/03/19 02:33:36;;;;;;;;;;;6.30;98.00;;;;;;5092708;28;19934;-71
2021/03/19 02:36:03;;;;;;;;;;;6.30;98.00;;;;;;5089728;28;19934;-71
2021/03/19 02:38:29;;;;;;;;;;;6.30;97.90;;;;;;5081323;28;19934;-71
2021/03/19 02:40:56;;;;;;;;;;;6.20;97.70;;;;;;5080047;28;19936;-71
2021/03/19 02:43:23;;;;;;;;;;;6.20;97.80;;;;;;5070260;28;19939;-70
2021/03/19 02:45:50;;;;;;;;;;;6.20;98.00;;;;;;5071649;28;19924;-70
2021/03/19 02:48:16;;;;;;;;;;;6.20;98.00;;;;;;5072565;28;20310;-71
2021/03/19 02:50:44;;;;;;;;;;;6.20;98.00;;;;;;5071828;28;19939;-71
2021/03/19 02:53:12;;;;;;;;;;;6.20;97.90;;;;;;5072675;28;19925;-71
2021/03/19 02:55:38;;;;;;;;;;;6.20;97.90;;;;;;5072348;28;19926;-71
2021/03/19 02:58:04;;;;;;;;;;;6.10;97.90;;;;;;5072036;28;20351;-71
2021/03/19 03:00:31;;;;;;;;;;;6.10;97.90;;;;;;5062223;28;20359;-71
2021/03/19 03:02:57;;;;;;;;;;;6.10;97.80;;;;;;5072498;28;20094;-71
2021/03/19 03:05:23;;;;;;;;;;;6.10;97.90;;;;;;5061496;28;19948;-71
2021/03/19 03:07:50;;;;;;;;;;;6.10;98.00;;;;;;5071907;28;19936;-71
2021/03/19 03:10:18;;;;;;;;;;;6.00;97.90;;;;;;5072075;28;19925;-70
2021/03/19 03:12:45;;;;;;;;;;;6.00;97.90;;;;;;5067501;28;20351;-70
2021/03/19 03:15:13;;;;;;;;;;;6.00;97.70;;;;;;5067841;28;19928;-71
2021/03/19 03:17:39;;;;;;;;;;;5.90;97.50;;;;;;5071581;28;20249;-70
2021/03/19 03:20:06;;;;;;;;;;;5.90;97.70;;;;;;5072007;28;19925;-70
2021/03/19 03:22:33;;;;;;;;;;;5.80;97.70;;;;;;5072202;28;20341;-70
2021/03/19 03:25:00;;;;;;;;;;;5.80;97.80;;;;;;5071772;28;19935;-70
2021/03/19 03:27:26;;;;;;;;;;;5.70;97.80;;;;;;5072059;28;19929;-70
2021/03/19 03:29:52;;;;;;;;;;;5.70;97.80;;;;;;5071754;28;19924;-70
2021/03/19 03:32:19;;;;;;;;;;;5.70;97.70;;;;;;5071809;28;19935;-70
2021/03/19 03:34:45;;;;;;;;;;;5.60;97.90;;;;;;5070615;28;20090;-70
2021/03/19 03:37:11;;;;;;;;;;;5.60;98.00;;;;;;5071818;28;19939;-71
2021/03/19 03:39:37;;;;;;;;;;;5.70;98.00;;;;;;5071420;28;19935;-70
2021/03/19 03:42:05;;;;;;;;;;;5.70;98.10;;;;;;5071639;28;19989;-70
2021/03/19 03:44:33;;;;;;;;;;;5.60;98.10;;;;;;5071417;28;19932;-71
2021/03/19 03:46:59;;;;;;;;;;;5.60;98.10;;;;;;5071701;28;19934;-70
2021/03/19 03:49:26;;;;;;;;;;;5.60;98.10;;;;;;5071883;28;20357;-70
2021/03/19 03:51:52;;;;;;;;;;;5.60;98.00;;;;;;5071392;28;19928;-70
2021/03/19 03:54:19;;;;;;;;;;;5.60;98.00;;;;;;5072014;28;19935;-70
2021/03/19 03:56:46;;;;;;;;;;;5.70;98.00;;;;;;5072221;28;20285;-70
2021/03/19 03:59:13;;;;;;;;;;;5.60;97.80;;;;;;5070720;28;20024;-70
2021/03/19 04:01:40;;;;;;;;;;;5.60;97.90;;;;;;5072128;28;19925;-70
2021/03/19 04:04:07;;;;;;;;;;;5.60;98.00;;;;;;5070166;28;20280;-70
2021/03/19 04:06:33;;;;;;;;;;;5.60;98.00;;;;;;5072171;28;20007;-71
2021/03/19 04:08:59;;;;;;;;;;;5.60;98.00;;;;;;5075417;28;19924;-70
2021/03/19 04:11:26;;;;;;;;;;;5.60;98.00;;;;;;5075161;28;19931;-70
2021/03/19 04:13:52;;;;;;;;;;;5.60;97.90;;;;;;5074754;28;19935;-70
2021/03/19 04:16:19;;;;;;;;;;;5.50;97.70;;;;;;5074987;28;20363;-70
2021/03/19 04:18:46;;;;;;;;;;;5.50;97.60;;;;;;5074529;28;19932;-70
2021/03/19 04:21:13;;;;;;;;;;;5.40;97.80;;;;;;5074780;28;19935;-70
2021/03/19 04:23:40;;;;;;;;;;;5.50;98.00;;;;;;5074610;28;19958;-70
2021/03/19 04:26:07;;;;;;;;;;;5.50;98.00;;;;;;5074956;28;19925;-70
2021/03/19 04:28:34;;;;;;;;;;;5.50;98.00;;;;;;5074690;28;19925;-70
2021/03/19 04:31:01;;;;;;;;;;;5.50;98.50;;;;;;5074626;28;21091;-70
2021/03/19 04:33:28;;;;;;;;;;;5.40;98.00;;;;;;5074728;28;19939;-70
2021/03/19 04:35:58;;;;;;;;;;;5.40;97.90;;;;;;5069726;28;19999;-70
2021/03/19 04:38:24;;;;;;;;;;;5.40;97.80;;;;;;5074663;28;20382;-70
2021/03/19 04:40:50;;;;;;;;;;;5.40;97.80;;;;;;5060661;28;19924;-70
2021/03/19 04:43:20;;;;;;;;;;;5.30;98.00;;;;;;5074196;28;19960;-70
2021/03/19 04:45:46;;;;;;;;;;;5.40;97.90;;;;;;5074144;28;20051;-70
2021/03/19 04:48:13;;;;;;;;;;;5.40;98.00;;;;;;5074441;28;19924;-70
2021/03/19 04:50:40;;;;;;;;;;;5.40;97.90;;;;;;5073886;28;19953;-70
2021/03/19 04:53:06;;;;;;;;;;;5.40;97.80;;;;;;5073082;28;20038;-70
2021/03/19 04:55:32;;;;;;;;;;;5.40;97.60;;;;;;5073597;28;19924;-70
2021/03/19 04:57:59;;;;;;;;;;;5.40;97.70;;;;;;5073668;28;19935;-70
2021/03/19 05:00:25;;;;;;;;;;;5.40;97.70;;;;;;5065893;28;19999;-70
2021/03/19 05:02:52;;;;;;;;;;;5.30;97.60;;;;;;5073818;28;19939;-71
2021/03/19 05:05:19;;;;;;;;;;;5.30;97.70;;;;;;5065949;28;20025;-71
2021/03/19 05:07:47;;;;;;;;;;;5.30;97.60;;;;;;5073721;28;19925;-71
2021/03/19 05:10:14;;;;;;;;;;;5.30;97.50;;;;;;5060949;28;20266;-71
2021/03/19 05:12:40;;;;;;;;;;;5.30;97.50;;;;;;5073923;28;20301;-71
2021/03/19 05:15:07;;;;;;;;;;;5.20;97.60;;;;;;5074356;28;19928;-70
2021/03/19 05:17:34;;;;;;;;;;;5.20;97.50;;;;;;5073858;28;20247;-71
2021/03/19 05:20:00;;;;;;;;;;;5.20;97.30;;;;;;5073755;28;19936;-71
2021/03/19 05:22:27;;;;;;;;;;;5.20;97.20;;;;;;5074201;28;19996;-70
2021/03/19 05:24:54;;;;;;;;;;;5.10;97.00;;;;;;5073493;28;19924;-70
2021/03/19 05:27:20;;;;;;;;;;;5.10;96.90;;;;;;5073978;28;19924;-70
2021/03/19 05:29:47;;;;;;;;;;;5.10;96.80;;;;;;5073333;28;20033;-70
2021/03/19 05:32:13;;;;;;;;;;;5.10;97.00;;;;;;5073979;28;19990;-69
2021/03/19 05:34:39;;;;;;;;;;;5.10;97.00;;;;;;5073621;28;20007;-70
2021/03/19 05:37:05;;;;;;;;;;;5.00;97.00;;;;;;5073009;28;20325;-70
2021/03/19 05:39:32;;;;;;;;;;;5.00;97.00;;;;;;5073974;28;20020;-70
2021/03/19 05:41:59;;;;;;;;;;;5.00;97.10;;;;;;5072713;28;19928;-71
2021/03/19 05:44:27;;;;;;;;;;;5.00;97.10;;;;;;5073646;28;19935;-69
2021/03/19 05:46:54;;;;;;;;;;;5.00;97.10;;;;;;5072940;28;19932;-70
2021/03/19 05:49:21;;;;;;;;;;;5.10;97.60;;;;;;5073574;28;19924;-70
2021/03/19 05:51:48;;;;;;;;;;;5.10;97.20;;;;;;5072889;28;19925;-70
2021/03/19 05:54:22;;;;;;;;;;;5.10;97.30;;;;;;5073661;28;19934;-70
2021/03/19 05:56:52;;;;;;;;;;;5.10;97.40;;;;;;5072459;28;19934;-70
2021/03/19 05:59:19;;;;;;;;;;;5.20;97.60;;;;;;5069382;28;19932;-70
2021/03/19 06:01:46;;;;;;;;;;;5.20;97.10;;;;;;5072871;28;19957;-70
2021/03/19 06:04:18;;;;;;;;;;;5.20;97.00;;;;;;5067692;28;19928;-70
2021/03/19 06:06:45;;;;;;;;;;;5.20;97.10;;;;;;5070679;28;19953;-70
2021/03/19 06:09:22;;;;;;;;;;;5.20;97.20;;;;;;5073075;28;20115;-69
2021/03/19 06:11:49;;;;;;;;;;;5.30;97.10;;;;;;5072614;28;19925;-70
2021/03/19 06:14:17;;;;;;;;;;;5.30;96.80;;;;;;5073315;28;19935;-70
2021/03/19 06:16:45;;;;;;;;;;;5.30;96.70;;;;;;5059559;28;19991;-69
2021/03/19 06:19:27;;;;;;;;;;;5.30;96.60;;;;;;5058996;28;19924;-70
2021/03/19 06:22:02;;;;;;;;;;;5.30;96.70;;;;;;5072610;28;19924;-70
2021/03/19 06:24:28;;;;;;;;;;;5.30;96.60;;;;;;5073109;28;19935;-70
2021/03/19 06:27:09;;;;;;;;;;;5.20;96.70;;;;;;5072333;28;19935;-70
2021/03/19 06:29:42;;;;;;;;;;;5.20;96.80;;;;;;5073139;28;20061;-70
2021/03/19 06:32:13;;;;;;;;;;;5.20;96.80;;;;;;5072393;28;19928;-70
2021/03/19 06:34:54;;;;;;;;;;;5.20;96.80;;;;;;5069515;28;19925;-70
2021/03/19 06:37:32;;;;;;;;;;;5.20;97.00;;;;;;5058982;28;20051;-71
2021/03/19 06:39:59;;;;;;;;;;;5.20;96.80;;;;;;5072382;28;19935;-70
2021/03/19 06:42:30;;;;;;;;;;;5.20;96.60;;;;;;5067166;28;19932;-70
2021/03/19 06:45:06;;;;;;;;;;;5.20;96.70;;;;;;5069354;28;19932;-71
2021/03/19 06:47:38;;;;;;;;;;;5.30;96.90;;;;;;5072770;28;19931;-70
2021/03/19 06:50:05;;;;;;;;;;;5.30;97.00;;;;;;5072154;28;20368;-70
2021/03/19 06:52:31;;;;;;;;;;;5.30;97.00;;;;;;5072739;28;20015;-70
2021/03/19 06:54:59;;;;;;;;;;;5.40;96.50;;;;;;5072260;28;19997;-70
2021/03/19 06:57:26;;;;;;;;;;;5.40;96.30;;;;;;5072663;28;19950;-70
2021/03/19 06:59:54;;;;;;;;;;;5.40;96.20;;;;;;5072533;28;19925;-70
2021/03/19 07:02:31;;;;;;;;;;;5.40;96.00;;;;;;5072134;28;20239;-70
2021/03/19 07:05:01;;;;;;;;;;;5.50;96.10;;;;;;5069367;28;20311;-70
2021/03/19 07:08:00;;;;;;;;;;;5.50;96.40;;;;;;5072193;28;21024;-70
2021/03/19 07:10:36;;;;;;;;;;;5.60;96.40;;;;;;5010387;28;19940;-69
2021/03/19 07:13:07;;;;;;;;;;;5.60;96.50;;;;;;5010628;28;20008;-71
2021/03/19 07:15:41;;;;;;;;;;;5.70;96.50;;;;;;5043878;28;20295;-71
2021/03/19 07:18:12;;;;;;;;;;;5.80;96.20;;;;;;5072510;28;19925;-70
2021/03/19 07:20:49;;;;;;;;;;;5.80;96.20;;;;;;5079215;28;20269;-71
2021/03/19 07:23:16;;;;;;;;;;;5.80;96.00;;;;;;5072114;28;20011;-71
2021/03/19 07:25:51;;;;;;;;;;;5.90;95.40;;;;;;5072115;28;20379;-70
2021/03/19 07:28:27;;;;;;;;;;;5.90;95.50;;;;;;5071715;28;19935;-71
2021/03/19 07:31:02;;;;;;;;;;;5.90;95.30;;;;;;5072532;28;20270;-71
2021/03/19 07:33:52;;;;;;;;;;;5.90;95.40;;;;;;5075612;28;19958;-71
2021/03/19 07:36:24;;;;;;;;;;;5.90;95.60;;;;;;4987428;28;20312;-71
2021/03/19 07:39:05;;;;;;;;;;;5.90;95.60;;;;;;5063044;28;19924;-70
2021/03/19 07:41:39;;;;;;;;;;;5.90;95.10;;;;;;5056350;28;19924;-70
2021/03/19 07:44:14;;;;;;;;;;;5.90;95.20;;;;;;5087285;28;19924;-70
2021/03/19 07:46:48;;;;;;;;;;;5.90;95.20;;;;;;5095595;28;19925;-70
2021/03/19 07:49:25;;;;;;;;;;;5.90;95.20;;;;;;5096268;28;20353;-70
2021/03/19 07:52:01;;;;;;;;;;;6.00;95.50;;;;;;5084002;28;20391;-70
2021/03/19 07:54:36;;;;;;;;;;;6.00;95.60;;;;;;5095616;28;19924;-70
2021/03/19 07:57:04;;;;;;;;;;;6.10;95.80;;;;;;5081879;28;19924;-69
2021/03/19 07:59:40;;;;;;;;;;;6.10;95.50;;;;;;5066625;28;20690;-69
2021/03/19 08:02:27;;;;;;;;;;;6.10;95.60;;;;;;5062452;28;19946;-69
2021/03/19 08:04:59;;;;;;;;;;;6.20;95.70;;;;;;5067681;28;20274;-68
2021/03/19 08:07:28;;;;;;;;;;;6.30;95.90;;;;;;5075091;28;19924;-70
2021/03/19 08:09:59;;;;;;;;;;;6.30;95.80;;;;;;5075464;28;19924;-71
2021/03/19 08:12:28;;;;;;;;;;;6.20;95.40;;;;;;5075038;28;19931;-70
2021/03/19 08:14:57;;;;;;;;;;;6.20;95.50;;;;;;5075202;28;20007;-69
2021/03/19 08:17:29;;;;;;;;;;;6.20;95.50;;;;;;5074666;28;19982;-70
2021/03/19 08:20:01;;;;;;;;;;;6.20;95.90;;;;;;5062599;28;20251;-70
2021/03/19 08:22:29;;;;;;;;;;;6.30;95.60;;;;;;5074874;28;19924;-70
2021/03/19 08:24:59;;;;;;;;;;;6.30;95.70;;;;;;5075173;28;20358;-70
2021/03/19 08:27:31;;;;;;;;;;;6.30;96.10;;;;;;5074420;28;19928;-70
2021/03/19 08:30:01;;;;;;;;;;;6.30;96.30;;;;;;5075294;28;19924;-70
2021/03/19 08:32:37;;;;;;;;;;;6.30;96.30;;;;;;5074428;28;19924;-70
2021/03/19 08:35:10;;;;;;;;;;;6.40;96.40;;;;;;5074472;28;19925;-71
2021/03/19 08:37:41;;;;;;;;;;;6.50;96.40;;;;;;5088779;28;20690;-70
2021/03/19 08:40:13;;;;;;;;;;;6.50;96.40;;;;;;5095131;28;19924;-71
2021/03/19 08:42:41;;;;;;;;;;;6.50;96.60;;;;;;5073073;28;20426;-70
2021/03/19 08:45:15;;;;;;;;;;;6.40;96.70;;;;;;5074689;28;19925;-70
2021/03/19 08:47:44;;;;;;;;;;;6.50;97.00;;;;;;5074428;28;20678;-70
2021/03/19 08:50:12;;;;;;;;;;;6.50;97.00;;;;;;5074790;28;20049;-71
2021/03/19 08:52:40;;;;;;;;;;;6.50;97.00;;;;;;5074144;28;20031;-71
2021/03/19 08:55:21;;;;;;;;;;;6.50;97.10;;;;;;5071916;28;19940;-71
2021/03/19 08:57:48;;;;;;;;;;;6.50;97.00;;;;;;5065910;28;20722;-70
2021/03/19 09:00:14;;;;;;;;;;;6.50;97.00;;;;;;5066629;28;19932;-70
2021/03/19 09:02:49;;;;;;;;;;;6.50;97.00;;;;;;5073779;28;19967;-71
2021/03/19 09:05:17;;;;;;;;;;;6.50;97.10;;;;;;5066597;28;19925;-71
2021/03/19 09:08:12;;;;;;;;;;;6.50;97.10;;;;;;5073712;28;20407;-71
2021/03/19 09:10:53;;;;;;;;;;;6.50;96.90;;;;;;5074063;28;20323;-70
2021/03/19 09:13:20;;;;;;;;;;;6.50;96.90;;;;;;5074026;28;19928;-71
2021/03/19 09:15:47;;;;;;;;;;;6.50;97.00;;;;;;5073730;28;19986;-70
2021/03/19 09:18:28;;;;;;;;;;;6.50;97.00;;;;;;5073890;28;19935;-71
2021/03/19 09:21:04;;;;;;;;;;;6.50;97.30;;;;;;5085460;28;19939;-70
2021/03/19 09:23:48;;;;;;;;;;;6.50;97.40;;;;;;5094361;28;19924;-71
2021/03/19 09:26:32;;;;;;;;;;;6.50;97.30;;;;;;5093875;28;19953;-70
2021/03/19 09:29:01;;;;;;;;;;;6.60;97.50;;;;;;5083724;28;19924;-72
2021/03/19 09:31:36;;;;;;;;;;;6.60;97.30;;;;;;5093832;28;19934;-71
2021/03/19 09:34:05;;;;;;;;;;;6.70;97.40;;;;;;5093993;28;22427;-70
2021/03/19 09:36:52;;;;;;;;;;;6.70;97.50;;;;;;5086363;28;19932;-70
2021/03/19 09:39:37;;;;;;;;;;;6.70;97.30;;;;;;5084089;28;20451;-71
2021/03/19 09:42:04;;;;;;;;;;;6.70;97.60;;;;;;5071247;28;20019;-71
2021/03/19 09:44:31;;;;;;;;;;;6.80;97.60;;;;;;5070770;28;19946;-68
2021/03/19 09:46:58;;;;;;;;;;;6.90;97.50;;;;;;5073598;28;19932;-71
2021/03/19 09:49:27;;;;;;;;;;;7.00;97.00;;;;;;5072239;28;20194;-70
2021/03/19 09:51:53;;;;;;;;;;;7.00;96.90;;;;;;5073492;28;19935;-70
2021/03/19 09:54:23;;;;;;;;;;;7.00;96.60;;;;;;5072235;28;19928;-70
2021/03/19 09:56:50;;;;;;;;;;;7.10;96.60;;;;;;5073253;28;19935;-70
2021/03/19 09:59:20;;;;;;;;;;;7.10;96.50;;;;;;5072606;28;19924;-70
2021/03/19 10:01:47;;;;;;;;;;;7.10;96.60;;;;;;5073355;28;19935;-71
2021/03/19 10:04:26;;;;;;;;;;;7.20;96.20;;;;;;5067292;28;19924;-71
2021/03/19 10:06:52;;;;;;;;;;;7.20;95.80;;;;;;5072907;28;20009;-70
2021/03/19 10:09:20;;;;;;;;;;;7.30;95.70;;;;;;5072679;28;20351;-69
2021/03/19 10:12:07;;;;;;;;;;;7.40;95.50;;;;;;5073278;28;20381;-70
2021/03/19 10:14:36;;;;;;;;;;;7.40;95.40;;;;;;5066094;28;19940;-71
2021/03/19 10:17:12;;;;;;;;;;;7.40;94.90;;;;;;5072919;28;19935;-71
2021/03/19 10:19:40;;;;;;;;;;;7.40;95.10;;;;;;5072261;28;20384;-69
2021/03/19 10:22:07;;;;;;;;;;;7.40;94.80;;;;;;5073065;28;19929;-70
2021/03/19 10:24:34;;;;;;;;;;;7.40;94.90;;;;;;5072480;28;19928;-70
2021/03/19 10:27:02;;;;;;;;;;;7.40;94.40;;;;;;5072915;28;19924;-70
2021/03/19 10:29:29;;;;;;;;;;;7.50;94.20;;;;;;5072678;28;19935;-70
2021/03/19 10:31:57;;;;;;;;;;;7.40;94.00;;;;;;5072807;28;19924;-70
2021/03/19 10:34:27;;;;;;;;;;;7.50;94.00;;;;;;5070289;28;19924;-71
2021/03/19 10:36:57;;;;;;;;;;;7.50;93.90;;;;;;5067432;28;20258;-70
2021/03/19 10:39:26;;;;;;;;;;;7.50;93.60;;;;;;5072192;28;19925;-70
2021/03/19 10:41:54;;;;;;;;;;;7.60;93.50;;;;;;5071823;28;20309;-70
2021/03/19 10:44:23;;;;;;;;;;;7.60;92.80;;;;;;5071553;28;20375;-70
2021/03/19 10:46:53;;;;;;;;;;;7.60;92.10;;;;;;5072783;28;19930;-70
2021/03/19 10:49:23;;;;;;;;;;;7.70;92.10;;;;;;5059091;28;20374;-70
2021/03/19 10:51:51;;;;;;;;;;;7.70;91.60;;;;;;5072738;28;19924;-70
2021/03/19 10:54:20;;;;;;;;;;;7.70;91.10;;;;;;5072451;28;20003;-71
2021/03/19 10:56:49;;;;;;;;;;;7.70;90.60;;;;;;5072471;28;19925;-70
2021/03/19 10:59:20;;;;;;;;;;;7.80;91.10;;;;;;5080526;28;19924;-70
2021/03/19 11:01:47;;;;;;;;;;;7.90;91.50;;;;;;5092403;28;19924;-69
2021/03/19 11:04:26;;;;;;;;;;;8.00;90.50;;;;;;5087128;28;20011;-69
2021/03/19 11:06:53;;;;;;;;;;;8.00;89.90;;;;;;5072894;28;19925;-69
2021/03/19 11:09:20;;;;;;;;;;;8.00;89.90;;;;;;5076847;28;19924;-69
2021/03/19 11:11:47;;;;;;;;;;;8.10;90.10;;;;;;5075936;28;19925;-71
2021/03/19 11:14:16;;;;;;;;;;;8.00;91.00;;;;;;5076513;28;19925;-70
2021/03/19 11:16:43;;;;;;;;;;;8.00;91.20;;;;;;5075813;28;19946;-69
2021/03/19 11:19:12;;;;;;;;;;;8.00;91.20;;;;;;5065045;28;19994;-70
2021/03/19 11:21:40;;;;;;;;;;;8.00;91.20;;;;;;5075070;28;19924;-69
2021/03/19 11:24:15;;;;;;;;;;;8.00;91.30;;;;;;5076365;28;20370;-70
2021/03/19 11:26:42;;;;;;;;;;;8.00;91.10;;;;;;5063168;28;19928;-70
2021/03/19 11:29:19;;;;;;;;;;;8.00;90.30;;;;;;5075957;28;20023;-70
2021/03/19 11:31:56;;;;;;;;;;;8.00;90.30;;;;;;5075777;28;20011;-71
2021/03/19 11:34:28;;;;;;;;;;;8.00;89.30;;;;;;5074594;28;20286;-71
2021/03/19 11:36:58;;;;;;;;;;;8.10;88.60;;;;;;5079042;28;20310;-69
2021/03/19 11:39:33;;;;;;;;;;;8.10;88.50;;;;;;5075681;28;19932;-70
2021/03/19 11:42:02;;;;;;;;;;;8.10;87.00;;;;;;5085599;28;19924;-70
2021/03/19 11:44:35;;;;;;;;;;;8.20;86.20;;;;;;5067152;28;19939;-70
2021/03/19 11:47:07;;;;;;;;;;;8.10;86.10;;;;;;5095888;28;19924;-70
2021/03/19 11:49:33;;;;;;;;;;;8.10;83.80;;;;;;5096238;28;19923;-70
2021/03/19 11:52:00;;;;;;;;;;;8.10;82.80;;;;;;5095473;28;19930;-70
2021/03/19 11:54:26;;;;;;;;;;;8.10;83.00;;;;;;5096165;28;19924;-70
2021/03/19 11:56:52;;;;;;;;;;;8.10;82.60;;;;;;5095310;28;19949;-70
2021/03/19 11:59:19;;;;;;;;;;;8.10;81.80;;;;;;5090706;28;20376;-70
2021/03/19 12:01:45;;;;;;;;;;;8.00;80.70;;;;;;5090660;28;20288;-70
2021/03/19 12:04:17;;;;;;;;;;;8.00;81.30;;;;;;5090519;28;20350;-70
2021/03/19 12:06:44;;;;;;;;;;;8.00;80.70;;;;;;5091315;28;19932;-69
2021/03/19 12:09:11;;;;;;;;;;;7.90;80.60;;;;;;5095988;28;19931;-70
2021/03/19 12:11:39;;;;;;;;;;;7.90;79.20;;;;;;5095718;28;19934;-70
2021/03/19 12:14:08;;;;;;;;;;;7.90;79.60;;;;;;5095512;28;19935;-70
2021/03/19 12:16:38;;;;;;;;;;;8.00;80.00;;;;;;5095303;28;19924;-70
2021/03/19 12:19:04;;;;;;;;;;;8.00;77.80;;;;;;5084726;28;19931;-70
2021/03/19 12:21:30;;;;;;;;;;;8.10;79.20;;;;;;5095312;28;19935;-70
2021/03/19 12:23:57;;;;;;;;;;;8.10;75.80;;;;;;5095034;28;20073;-70
2021/03/19 12:26:24;;;;;;;;;;;8.10;76.80;;;;;;5095178;28;19924;-70
2021/03/19 12:28:50;;;;;;;;;;;8.10;78.00;;;;;;5094802;28;20003;-70
2021/03/19 12:31:16;;;;;;;;;;;8.20;78.80;;;;;;5095203;28;19932;-70
2021/03/19 12:33:46;;;;;;;;;;;8.20;79.70;;;;;;5094943;28;19924;-71
2021/03/19 12:36:13;;;;;;;;;;;8.20;80.00;;;;;;5085604;28;19968;-71
2021/03/19 12:38:39;;;;;;;;;;;8.20;78.00;;;;;;5095130;28;19924;-69
2021/03/19 12:41:05;;;;;;;;;;;8.10;77.30;;;;;;5094426;28;20014;-69
2021/03/19 12:43:33;;;;;;;;;;;8.00;76.80;;;;;;5095038;28;20388;-69
2021/03/19 12:45:59;;;;;;;;;;;8.00;76.90;;;;;;5094475;28;19928;-69
2021/03/19 12:48:25;;;;;;;;;;;8.00;77.40;;;;;;5095264;28;20410;-70
2021/03/19 12:50:52;;;;;;;;;;;8.00;76.70;;;;;;5094324;28;20048;-71
2021/03/19 12:53:20;;;;;;;;;;;8.00;73.60;;;;;;5094793;28;19924;-70
2021/03/19 12:55:46;;;;;;;;;;;7.90;71.80;;;;;;5094521;28;19924;-69
2021/03/19 12:58:13;;;;;;;;;;;7.90;71.00;;;;;;5094640;28;19924;-69
2021/03/19 13:00:40;;;;;;;;;;;7.90;70.70;;;;;;5093257;28;19934;-70
2021/03/19 13:03:07;;;;;;;;;;;7.90;70.70;;;;;;5094292;28;19924;-70
2021/03/19 13:05:34;;;;;;;;;;;7.90;70.60;;;;;;5093103;28;20011;-70
2021/03/19 13:08:00;;;;;;;;;;;7.90;72.10;;;;;;5094267;28;19981;-70
2021/03/19 13:10:28;;;;;;;;;;;7.90;72.20;;;;;;5094509;28;19959;-69
2021/03/19 13:12:54;;;;;;;;;;;8.00;72.80;;;;;;5094077;28;19928;-70
2021/03/19 13:15:21;;;;;;;;;;;7.90;73.30;;;;;;5094534;28;20297;-70
2021/03/19 13:17:49;;;;;;;;;;;7.90;73.20;;;;;;5093864;28;19984;-70
2021/03/19 13:20:15;;;;;;;;;;;7.90;73.60;;;;;;5090559;28;19939;-69
2021/03/19 13:22:42;;;;;;;;;;;8.00;73.20;;;;;;5094221;28;20039;-70
2021/03/19 13:25:11;;;;;;;;;;;8.00;72.80;;;;;;5093830;28;20244;-70
2021/03/19 13:27:37;;;;;;;;;;;8.10;73.10;;;;;;5094222;28;19984;-70
2021/03/19 13:30:08;;;;;;;;;;;8.00;73.40;;;;;;5093712;28;19924;-69
2021/03/19 13:32:34;;;;;;;;;;;8.10;72.30;;;;;;5094249;28;19932;-69
2021/03/19 13:35:01;;;;;;;;;;;8.00;71.50;;;;;;5091079;28;20030;-70
2021/03/19 13:37:28;;;;;;;;;;;8.00;71.10;;;;;;5085034;28;19974;-69
2021/03/19 13:39:54;;;;;;;;;;;8.00;71.10;;;;;;5093463;28;20150;-69
2021/03/19 13:42:20;;;;;;;;;;;8.00;69.40;;;;;;5089067;28;19934;-69
2021/03/19 13:44:46;;;;;;;;;;;7.90;68.60;;;;;;5091180;28;19956;-68
2021/03/19 13:47:13;;;;;;;;;;;7.80;70.10;;;;;;5089195;28;19958;-70
2021/03/19 13:49:39;;;;;;;;;;;7.80;71.00;;;;;;5091391;28;20003;-70
2021/03/19 13:52:06;;;;;;;;;;;7.90;72.10;;;;;;5093658;28;19931;-70
2021/03/19 13:54:33;;;;;;;;;;;7.90;72.80;;;;;;5093624;28;20376;-69
2021/03/19 13:57:00;;;;;;;;;;;7.90;73.00;;;;;;5093247;28;20444;-69
2021/03/19 13:59:26;;;;;;;;;;;7.90;72.80;;;;;;5091151;28;20374;-70
2021/03/19 14:01:52;;;;;;;;;;;7.90;76.30;;;;;;5093437;28;20007;-70
2021/03/19 14:04:19;;;;;;;;;;;7.60;80.80;;;;;;5091252;28;20355;-70
2021/03/19 14:06:45;;;;;;;;;;;7.50;83.10;;;;;;5093317;28;19924;-70
2021/03/19 14:09:12;;;;;;;;;;;7.30;85.30;;;;;;5092962;28;20071;-71
2021/03/19 14:11:38;;;;;;;;;;;7.20;86.60;;;;;;5093777;28;19942;-70
2021/03/19 14:14:05;;;;;;;;;;;7.10;88.20;;;;;;5092976;28;20265;-70
2021/03/19 14:16:31;;;;;;;;;;;7.00;88.00;;;;;;5093386;28;19973;-70
2021/03/19 14:18:57;;;;;;;;;;;6.80;87.60;;;;;;5088692;28;20358;-70
2021/03/19 14:21:23;;;;;;;;;;;6.80;87.30;;;;;;5093813;28;20421;-69
2021/03/19 14:23:50;;;;;;;;;;;6.70;87.30;;;;;;5081952;28;20274;-70
2021/03/19 14:26:17;;;;;;;;;;;6.60;87.90;;;;;;5085622;28;20023;-71
2021/03/19 14:28:44;;;;;;;;;;;6.50;88.30;;;;;;5085646;28;20280;-71
2021/03/19 14:31:10;;;;;;;;;;;6.50;89.10;;;;;;5095531;28;19924;-71
2021/03/19 14:33:37;;;;;;;;;;;6.50;89.60;;;;;;5083437;28;19924;-71
2021/03/19 14:36:03;;;;;;;;;;;6.50;89.10;;;;;;5082664;28;19923;-70
2021/03/19 14:38:30;;;;;;;;;;;6.50;88.10;;;;;;5081552;28;19977;-71
2021/03/19 14:40:57;;;;;;;;;;;6.50;88.30;;;;;;5074703;28;19932;-71
2021/03/19 14:43:25;;;;;;;;;;;6.50;87.50;;;;;;5080019;28;19982;-70
2021/03/19 14:45:51;;;;;;;;;;;6.50;85.20;;;;;;5087696;28;19947;-70